createdAt,value
2018-04-15T00:00:19.556Z,11.47
2018-04-15T00:02:47.032Z,11.48
2018-04-15T00:05:14.510Z,11.48
2018-04-15T00:07:41.988Z,11.44
2018-04-15T00:10:09.571Z,11.33
2018-04-15T00:12:37.044Z,11.26
2018-04-15T00:15:04.504Z,11.19
2018-04-15T00:17:32.237Z,11.16
2018-04-15T00:19:59.769Z,11.07
2018-04-15T00:22:27.244Z,11.02
2018-04-15T00:24:55.155Z,11.00
2018-04-15T00:27:22.621Z,10.99
2018-04-15T00:29:50.080Z,10.96
2018-04-15T00:32:17.597Z,10.99
2018-04-15T00:34:45.238Z,11.03
2018-04-15T00:37:12.711Z,11.04
2018-04-15T00:39:40.464Z,11.04
2018-04-15T00:42:07.965Z,10.98
2018-04-15T00:44:35.669Z,10.96
2018-04-15T00:47:03.117Z,10.94
2018-04-15T00:49:30.592Z,10.88
2018-04-15T00:51:58.072Z,10.86
2018-04-15T00:54:25.582Z,10.81
2018-04-15T00:56:53.052Z,10.78
2018-04-15T00:59:20.562Z,10.82
2018-04-15T01:01:48.040Z,10.78
2018-04-15T01:04:15.522Z,10.69
2018-04-15T01:06:43.001Z,10.58
2018-04-15T01:09:10.479Z,10.48
2018-04-15T01:11:37.959Z,10.34
2018-04-15T01:14:05.446Z,10.33
2018-04-15T01:16:32.930Z,10.25
2018-04-15T01:19:00.393Z,10.24
2018-04-15T01:21:27.863Z,10.21
2018-04-15T01:23:55.817Z,10.17
2018-04-15T01:26:23.284Z,10.15
2018-04-15T01:28:50.769Z,10.09
2018-04-15T01:31:18.262Z,10.01
2018-04-15T01:33:45.738Z,9.99
2018-04-15T01:36:13.214Z,9.94
2018-04-15T01:38:40.697Z,9.90
2018-04-15T01:41:08.205Z,9.91
2018-04-15T01:43:35.677Z,9.87
2018-04-15T01:46:03.211Z,9.88
2018-04-15T01:48:30.667Z,9.87
2018-04-15T01:50:58.129Z,9.85
2018-04-15T01:53:25.653Z,9.87
2018-04-15T01:55:53.131Z,9.83
2018-04-15T01:58:20.610Z,9.78
2018-04-15T02:00:48.070Z,9.77
2018-04-15T02:03:15.546Z,9.71
2018-04-15T02:05:43.061Z,9.72
2018-04-15T02:08:10.555Z,9.71
2018-04-15T02:10:38.031Z,9.64
2018-04-15T02:13:05.498Z,9.65
2018-04-15T02:15:33.006Z,9.58
2018-04-15T02:18:00.548Z,9.51
2018-04-15T02:20:28.125Z,9.45
2018-04-15T02:22:55.615Z,9.49
2018-04-15T02:25:23.100Z,9.49
2018-04-15T02:27:50.584Z,9.50
2018-04-15T02:30:18.071Z,9.53
2018-04-15T02:32:45.536Z,9.46
2018-04-15T02:35:13.538Z,9.49
2018-04-15T02:37:41.120Z,9.43
2018-04-15T02:40:08.616Z,9.43
2018-04-15T02:42:36.083Z,9.42
2018-04-15T02:45:03.592Z,9.37
2018-04-15T02:47:31.069Z,9.32
2018-04-15T02:49:58.628Z,9.28
2018-04-15T02:52:26.508Z,9.26
2018-04-15T02:54:54.059Z,9.21
2018-04-15T02:57:21.514Z,9.16
2018-04-15T02:59:49.053Z,9.10
2018-04-15T03:02:16.541Z,9.06
2018-04-15T03:04:44.022Z,9.00
2018-04-15T03:07:11.503Z,8.97
2018-04-15T03:09:38.996Z,8.92
2018-04-15T03:12:06.462Z,8.98
2018-04-15T03:14:33.931Z,8.94
2018-04-15T03:17:01.393Z,8.92
2018-04-15T03:19:28.874Z,8.89
2018-04-15T03:21:56.335Z,8.84
2018-04-15T03:24:23.916Z,8.76
2018-04-15T03:26:51.446Z,8.73
2018-04-15T03:29:18.946Z,8.72
2018-04-15T03:31:46.590Z,8.71
2018-04-15T03:34:14.099Z,8.67
2018-04-15T03:36:41.577Z,8.69
2018-04-15T03:39:09.087Z,8.66
2018-04-15T03:41:36.608Z,8.67
2018-04-15T03:44:04.111Z,8.70
2018-04-15T03:46:31.598Z,8.66
2018-04-15T03:48:59.061Z,8.47
2018-04-15T03:51:26.557Z,8.48
2018-04-15T03:53:54.031Z,8.48
2018-04-15T03:56:21.724Z,8.47
2018-04-15T03:58:49.240Z,8.44
2018-04-15T04:01:16.721Z,8.45
2018-04-15T04:03:44.285Z,8.41
2018-04-15T04:06:11.762Z,8.42
2018-04-15T04:08:39.266Z,8.37
2018-04-15T04:11:06.773Z,8.40
2018-04-15T04:13:34.252Z,8.40
2018-04-15T04:16:01.748Z,8.34
2018-04-15T04:18:41.134Z,8.35
2018-04-15T04:21:20.559Z,8.35
2018-04-15T04:24:00.961Z,8.35
2018-04-15T04:26:28.439Z,8.39
2018-04-15T04:28:55.907Z,8.41
2018-04-15T04:31:23.414Z,8.45
2018-04-15T04:33:50.983Z,8.41
2018-04-15T04:36:18.468Z,8.38
2018-04-15T04:38:45.971Z,8.33
2018-04-15T04:41:13.458Z,8.35
2018-04-15T04:43:40.928Z,8.32
2018-04-15T04:46:08.398Z,8.20
2018-04-15T04:48:35.910Z,8.11
2018-04-15T04:51:03.422Z,8.15
2018-04-15T04:53:30.920Z,8.13
2018-04-15T04:55:58.396Z,8.12
2018-04-15T04:58:25.894Z,8.15
2018-04-15T05:00:53.368Z,8.18
2018-04-15T05:03:20.852Z,8.22
2018-04-15T05:05:48.342Z,8.22
2018-04-15T05:08:15.823Z,8.24
2018-04-15T05:10:43.339Z,8.26
2018-04-15T05:13:10.836Z,8.24
2018-04-15T05:15:38.318Z,8.27
2018-04-15T05:18:05.849Z,8.37
2018-04-15T05:20:33.330Z,8.43
2018-04-15T05:23:00.814Z,8.53
2018-04-15T05:25:28.320Z,8.50
2018-04-15T05:27:55.798Z,8.66
2018-04-15T05:30:23.284Z,8.80
2018-04-15T05:32:50.799Z,9.00
2018-04-15T05:35:18.269Z,8.99
2018-04-15T05:37:45.724Z,9.16
2018-04-15T05:40:13.195Z,9.26
2018-04-15T05:42:40.688Z,9.41
2018-04-15T05:45:08.163Z,9.58
2018-04-15T05:47:35.636Z,9.65
2018-04-15T05:50:03.147Z,9.74
2018-04-15T05:52:30.634Z,9.69
2018-04-15T05:54:58.104Z,9.87
2018-04-15T05:57:25.608Z,9.90
2018-04-15T05:59:53.066Z,10.11
2018-04-15T06:02:20.599Z,10.25
2018-04-15T06:04:48.079Z,10.44
2018-04-15T06:07:15.566Z,10.35
2018-04-15T06:09:43.223Z,10.62
2018-04-15T06:12:10.699Z,10.70
2018-04-15T06:14:38.157Z,10.77
2018-04-15T06:17:05.618Z,10.79
2018-04-15T06:19:33.103Z,10.87
2018-04-15T06:22:00.596Z,10.86
2018-04-15T06:24:28.208Z,10.83
2018-04-15T06:26:55.671Z,10.81
2018-04-15T06:29:23.257Z,10.72
2018-04-15T06:31:50.770Z,10.81
2018-04-15T06:34:18.445Z,10.86
2018-04-15T06:36:46.002Z,11.10
2018-04-15T06:39:13.445Z,11.22
2018-04-15T06:41:41.062Z,11.18
2018-04-15T06:44:08.533Z,11.40
2018-04-15T06:46:36.058Z,11.47
2018-04-15T06:49:03.533Z,11.68
2018-04-15T06:51:31.500Z,11.71
2018-04-15T06:54:00.302Z,12.02
2018-04-15T06:56:27.991Z,12.13
2018-04-15T06:58:55.818Z,12.32
2018-04-15T07:01:23.430Z,12.39
2018-04-15T07:03:54.863Z,12.68
2018-04-15T07:06:22.793Z,12.78
2018-04-15T07:08:51.097Z,12.86
2018-04-15T07:11:19.989Z,12.79
2018-04-15T07:13:48.347Z,12.96
2018-04-15T07:16:22.662Z,13.15
2018-04-15T07:18:53.224Z,13.26
2018-04-15T07:21:21.193Z,13.48
2018-04-15T07:23:49.879Z,13.54
2018-04-15T07:26:24.978Z,13.78
2018-04-15T07:28:53.799Z,14.04
2018-04-15T07:31:23.633Z,14.23
2018-04-15T07:33:52.464Z,14.28
2018-04-15T07:36:21.050Z,14.43
2018-04-15T07:38:50.912Z,14.64
2018-04-15T07:41:19.849Z,14.91
2018-04-15T07:43:47.595Z,14.95
2018-04-15T07:46:20.019Z,14.97
2018-04-15T07:48:50.677Z,14.97
2018-04-15T07:51:19.846Z,15.01
2018-04-15T07:53:47.906Z,15.14
2018-04-15T07:56:16.209Z,15.10
2018-04-15T07:58:43.948Z,15.31
2018-04-15T08:01:12.534Z,15.44
2018-04-15T08:03:40.341Z,15.45
2018-04-15T08:06:07.993Z,15.43
2018-04-15T08:08:36.708Z,15.55
2018-04-15T08:11:04.383Z,15.77
2018-04-15T08:13:31.944Z,15.96
2018-04-15T08:15:59.514Z,16.22
2018-04-15T08:18:27.019Z,16.04
2018-04-15T08:20:54.514Z,16.75
2018-04-15T08:23:22.078Z,17.68
2018-04-15T08:25:49.599Z,18.17
2018-04-15T08:28:17.088Z,18.66
2018-04-15T08:30:44.595Z,18.69
2018-04-15T08:33:12.159Z,19.08
2018-04-15T08:35:39.756Z,19.24
2018-04-15T08:38:07.459Z,19.54
2018-04-15T08:40:34.952Z,19.90
2018-04-15T08:43:02.450Z,20.41
2018-04-15T08:45:30.087Z,20.11
2018-04-15T08:47:57.797Z,20.12
2018-04-15T08:50:25.298Z,19.86
2018-04-15T08:52:52.806Z,19.69
2018-04-15T08:55:20.385Z,19.22
2018-04-15T08:57:47.886Z,19.18
2018-04-15T09:00:15.355Z,19.04
2018-04-15T09:02:42.864Z,19.28
2018-04-15T09:05:10.485Z,19.36
2018-04-15T09:07:37.967Z,18.88
2018-04-15T09:10:05.466Z,18.54
2018-04-15T09:12:32.975Z,18.15
2018-04-15T09:15:00.499Z,18.28
2018-04-15T09:17:27.989Z,18.69
2018-04-15T09:19:55.705Z,18.82
2018-04-15T09:22:23.215Z,18.91
2018-04-15T09:24:50.730Z,19.15
2018-04-15T09:27:18.217Z,19.06
2018-04-15T09:29:45.829Z,18.95
2018-04-15T09:32:13.863Z,19.14
2018-04-15T09:34:41.338Z,19.27
2018-04-15T09:37:08.797Z,19.37
2018-04-15T09:39:36.306Z,19.43
2018-04-15T09:42:03.808Z,19.56
2018-04-15T09:44:31.334Z,19.64
2018-04-15T09:46:58.800Z,19.89
2018-04-15T09:49:26.279Z,19.65
2018-04-15T09:51:53.785Z,19.68
2018-04-15T09:54:21.308Z,19.72
2018-04-15T09:56:48.805Z,19.91
2018-04-15T09:59:16.321Z,19.82
2018-04-15T10:01:43.822Z,19.99
2018-04-15T10:04:11.315Z,20.08
2018-04-15T10:06:38.797Z,20.16
2018-04-15T10:09:06.286Z,20.07
2018-04-15T10:11:33.785Z,20.31
2018-04-15T10:14:01.274Z,20.48
2018-04-15T10:16:28.742Z,20.39
2018-04-15T10:18:56.210Z,20.19
2018-04-15T10:21:23.687Z,20.45
2018-04-15T10:23:51.172Z,20.69
2018-04-15T10:26:20.105Z,20.63
2018-04-15T10:28:47.605Z,20.60
2018-04-15T10:31:15.170Z,20.51
2018-04-15T10:33:42.646Z,21.04
2018-04-15T10:36:10.268Z,21.24
2018-04-15T10:38:37.800Z,20.73
2018-04-15T10:41:05.296Z,20.98
2018-04-15T10:43:32.770Z,21.24
2018-04-15T10:46:00.260Z,21.42
2018-04-15T10:48:27.790Z,21.39
2018-04-15T10:50:55.285Z,21.57
2018-04-15T10:53:22.771Z,22.14
2018-04-15T10:55:50.261Z,22.77
2018-04-15T10:58:17.783Z,23.39
2018-04-15T11:00:45.335Z,23.39
2018-04-15T11:03:12.804Z,22.93
2018-04-15T11:05:40.449Z,23.23
2018-04-15T11:08:07.922Z,23.03
2018-04-15T11:10:35.462Z,22.50
2018-04-15T11:13:03.027Z,22.83
2018-04-15T11:15:30.512Z,22.97
2018-04-15T11:17:58.002Z,22.83
2018-04-15T11:20:25.514Z,22.47
2018-04-15T11:22:52.979Z,22.86
2018-04-15T11:25:20.439Z,23.35
2018-04-15T11:27:47.898Z,24.00
2018-04-15T11:30:15.478Z,24.15
2018-04-15T11:32:42.976Z,24.77
2018-04-15T11:35:10.462Z,24.89
2018-04-15T11:37:37.945Z,24.63
2018-04-15T11:40:05.434Z,24.73
2018-04-15T11:42:32.917Z,24.17
2018-04-15T11:45:00.465Z,24.49
2018-04-15T11:47:27.954Z,25.28
2018-04-15T11:49:55.496Z,25.49
2018-04-15T11:52:23.046Z,25.80
2018-04-15T11:54:50.539Z,25.29
2018-04-15T11:57:18.015Z,25.09
2018-04-15T11:59:45.514Z,25.15
2018-04-15T12:02:13.268Z,25.52
2018-04-15T12:04:40.782Z,26.11
2018-04-15T12:07:08.277Z,26.32
2018-04-15T12:09:35.753Z,26.71
2018-04-15T12:12:03.264Z,26.79
2018-04-15T12:14:30.745Z,26.09
2018-04-15T12:16:58.227Z,25.80
2018-04-15T12:19:25.721Z,26.24
2018-04-15T12:21:53.192Z,25.94
2018-04-15T12:24:20.660Z,26.09
2018-04-15T12:26:48.370Z,26.18
2018-04-15T12:29:15.878Z,26.59
2018-04-15T12:31:43.384Z,26.32
2018-04-15T12:34:10.936Z,25.43
2018-04-15T12:36:38.441Z,25.10
2018-04-15T12:39:06.843Z,24.60
2018-04-15T12:41:34.327Z,24.02
2018-04-15T12:44:01.828Z,24.45
2018-04-15T12:46:29.299Z,25.53
2018-04-15T12:48:56.800Z,26.69
2018-04-15T12:51:24.320Z,27.23
2018-04-15T12:53:51.789Z,28.32
2018-04-15T12:56:19.276Z,29.37
2018-04-15T12:58:46.756Z,30.31
2018-04-15T13:01:14.321Z,30.13
2018-04-15T13:03:41.801Z,29.69
2018-04-15T13:06:09.331Z,30.10
2018-04-15T13:08:36.807Z,31.54
2018-04-15T13:11:04.300Z,32.30
2018-04-15T13:13:31.772Z,34.17
2018-04-15T13:15:59.270Z,35.09
2018-04-15T13:18:26.755Z,34.15
2018-04-15T13:20:54.245Z,31.71
2018-04-15T13:23:21.803Z,31.39
2018-04-15T13:25:49.294Z,30.89
2018-04-15T13:28:16.859Z,31.44
2018-04-15T13:30:44.324Z,33.03
2018-04-15T13:33:12.016Z,32.45
2018-04-15T13:35:39.513Z,32.47
2018-04-15T13:38:06.992Z,33.68
2018-04-15T13:40:34.484Z,33.87
2018-04-15T13:43:01.958Z,32.48
2018-04-15T13:45:29.447Z,33.34
2018-04-15T13:47:56.911Z,34.25
2018-04-15T13:50:24.413Z,34.80
2018-04-15T13:52:51.967Z,33.99
2018-04-15T13:55:19.478Z,32.80
2018-04-15T13:57:46.996Z,32.31
2018-04-15T14:00:14.473Z,31.24
2018-04-15T14:02:41.940Z,32.05
2018-04-15T14:05:09.433Z,33.84
2018-04-15T14:07:36.925Z,34.33
2018-04-15T14:10:04.549Z,32.55
2018-04-15T14:12:32.037Z,33.40
2018-04-15T14:14:59.540Z,34.60
2018-04-15T14:17:27.027Z,35.70
2018-04-15T14:19:54.623Z,36.61
2018-04-15T14:22:22.119Z,35.58
2018-04-15T14:24:50.838Z,36.45
2018-04-15T14:27:18.479Z,38.27
2018-04-15T14:29:46.336Z,39.22
2018-04-15T14:32:15.195Z,37.94
2018-04-15T14:34:43.699Z,38.35
2018-04-15T14:37:11.181Z,39.59
2018-04-15T14:39:38.689Z,38.22
2018-04-15T14:42:06.153Z,38.02
2018-04-15T14:44:33.627Z,37.31
2018-04-15T14:47:01.130Z,35.72
2018-04-15T14:49:28.673Z,34.69
2018-04-15T14:51:56.152Z,35.23
2018-04-15T14:54:23.617Z,33.87
2018-04-15T14:56:51.375Z,34.37
2018-04-15T14:59:18.858Z,34.64
2018-04-15T15:01:46.334Z,34.38
2018-04-15T15:04:13.833Z,33.22
2018-04-15T15:06:41.362Z,32.52
2018-04-15T15:09:08.842Z,31.54
2018-04-15T15:11:36.314Z,29.92
2018-04-15T15:14:03.797Z,29.06
2018-04-15T15:16:31.287Z,29.58
2018-04-15T15:18:58.773Z,29.86
2018-04-15T15:21:26.248Z,30.04
2018-04-15T15:23:53.922Z,29.51
2018-04-15T15:26:21.389Z,30.20
2018-04-15T15:28:48.911Z,30.19
2018-04-15T15:31:16.408Z,29.41
2018-04-15T15:33:43.901Z,29.62
2018-04-15T15:36:11.415Z,30.50
2018-04-15T15:38:38.884Z,31.23
2018-04-15T15:41:06.344Z,31.13
2018-04-15T15:43:33.823Z,31.94
2018-04-15T15:46:01.292Z,32.57
2018-04-15T15:48:28.874Z,32.42
2018-04-15T15:50:56.341Z,31.01
2018-04-15T15:53:24.101Z,29.27
2018-04-15T15:55:51.582Z,29.55
2018-04-15T15:58:19.123Z,29.24
2018-04-15T16:00:46.618Z,28.85
2018-04-15T16:03:14.153Z,27.69
2018-04-15T16:05:41.629Z,27.52
2018-04-15T16:08:09.199Z,27.11
2018-04-15T16:10:36.697Z,26.61
2018-04-15T16:13:04.202Z,25.80
2018-04-15T16:15:31.682Z,25.13
2018-04-15T16:17:59.182Z,24.33
2018-04-15T16:20:26.660Z,24.14
2018-04-15T16:22:54.159Z,23.52
2018-04-15T16:25:21.655Z,23.41
2018-04-15T16:27:49.251Z,23.46
2018-04-15T16:30:16.740Z,23.72
2018-04-15T16:32:44.228Z,23.59
2018-04-15T16:35:11.693Z,22.95
2018-04-15T16:37:39.197Z,22.76
2018-04-15T16:40:06.688Z,22.73
2018-04-15T16:42:37.115Z,22.97
2018-04-15T16:45:04.618Z,23.02
2018-04-15T16:47:32.177Z,23.00
2018-04-15T16:49:59.698Z,22.38
2018-04-15T16:52:27.170Z,22.39
2018-04-15T16:54:54.722Z,22.04
2018-04-15T16:57:22.203Z,21.93
2018-04-15T16:59:49.799Z,21.59
2018-04-15T17:02:17.340Z,21.59
2018-04-15T17:04:44.875Z,21.17
2018-04-15T17:07:12.373Z,21.03
2018-04-15T17:09:39.938Z,20.73
2018-04-15T17:12:07.410Z,20.62
2018-04-15T17:14:34.916Z,20.40
2018-04-15T17:17:02.430Z,20.32
2018-04-15T17:19:29.921Z,20.18
2018-04-15T17:21:57.515Z,20.03
2018-04-15T17:24:24.992Z,19.92
2018-04-15T17:26:52.489Z,19.83
2018-04-15T17:29:19.961Z,19.72
2018-04-15T17:31:47.783Z,19.64
2018-04-15T17:34:15.294Z,19.58
2018-04-15T17:36:42.804Z,19.50
2018-04-15T17:39:10.507Z,19.42
2018-04-15T17:41:38.007Z,19.35
2018-04-15T17:44:05.480Z,19.30
2018-04-15T17:46:34.039Z,19.25
2018-04-15T17:49:02.119Z,19.20
2018-04-15T17:51:29.681Z,19.10
2018-04-15T17:53:57.174Z,19.04
2018-04-15T17:56:24.641Z,18.95
2018-04-15T17:58:52.152Z,18.88
2018-04-15T18:01:19.673Z,18.86
2018-04-15T18:03:47.368Z,18.82
2018-04-15T18:06:14.852Z,18.66
2018-04-15T18:08:42.702Z,18.60
2018-04-15T18:11:10.231Z,18.50
2018-04-15T18:13:37.726Z,18.44
2018-04-15T18:16:05.213Z,18.54
2018-04-15T18:18:32.737Z,18.65
2018-04-15T18:21:00.237Z,18.71
2018-04-15T18:23:27.738Z,18.83
2018-04-15T18:25:56.082Z,18.85
2018-04-15T18:28:23.562Z,18.73
2018-04-15T18:30:51.159Z,18.64
2018-04-15T18:33:18.647Z,18.53
2018-04-15T18:35:46.398Z,18.43
2018-04-15T18:38:13.881Z,18.38
2018-04-15T18:40:41.399Z,18.31
2018-04-15T18:43:08.861Z,18.22
2018-04-15T18:45:36.436Z,18.15
2018-04-15T18:48:03.921Z,18.06
2018-04-15T18:50:31.407Z,18.01
2018-04-15T18:52:58.877Z,17.95
2018-04-15T18:55:26.395Z,17.91
2018-04-15T18:57:53.902Z,17.88
2018-04-15T19:00:21.376Z,17.84
2018-04-15T19:02:48.926Z,17.77
2018-04-15T19:05:16.470Z,17.73
2018-04-15T19:07:43.958Z,17.69
2018-04-15T19:10:11.427Z,17.69
2018-04-15T19:12:38.947Z,17.67
2018-04-15T19:15:06.461Z,17.64
2018-04-15T19:17:33.956Z,17.63
2018-04-15T19:20:01.434Z,17.60
2018-04-15T19:22:28.929Z,17.57
2018-04-15T19:24:56.856Z,17.55
2018-04-15T19:27:24.360Z,17.52
2018-04-15T19:29:51.853Z,17.49
2018-04-15T19:32:19.354Z,17.83
2018-04-15T19:34:46.864Z,18.46
2018-04-15T19:37:14.366Z,18.58
2018-04-15T19:39:41.877Z,18.36
2018-04-15T19:42:09.389Z,18.10
2018-04-15T19:44:37.098Z,17.99
2018-04-15T19:47:04.820Z,17.85
2018-04-15T19:49:32.439Z,18.05
2018-04-15T19:52:00.010Z,18.23
2018-04-15T19:54:27.494Z,18.22
2018-04-15T19:56:54.974Z,18.16
2018-04-15T20:01:50.588Z,17.85
2018-04-15T20:04:18.070Z,17.74
2018-04-15T20:06:45.549Z,17.65
2018-04-15T20:09:13.029Z,17.74
2018-04-15T20:11:40.530Z,17.72
2018-04-15T20:14:08.049Z,17.67
2018-04-15T20:16:35.534Z,17.57
2018-04-15T20:19:03.097Z,17.53
2018-04-15T20:21:30.627Z,17.44
2018-04-15T20:23:58.110Z,17.40
2018-04-15T20:26:25.596Z,17.30
2018-04-15T20:28:53.099Z,17.27
2018-04-15T20:31:20.576Z,17.17
2018-04-15T20:33:48.119Z,17.25
2018-04-15T20:36:15.640Z,17.21
2018-04-15T20:38:43.332Z,17.23
2018-04-15T20:41:10.822Z,17.20
2018-04-15T20:43:38.482Z,17.17
2018-04-15T20:46:05.976Z,17.15
2018-04-15T20:48:33.598Z,17.10
2018-04-15T20:51:01.253Z,17.02
2018-04-15T20:53:28.744Z,17.07
2018-04-15T20:55:56.257Z,16.92
2018-04-15T20:58:26.190Z,16.86
2018-04-15T21:00:53.848Z,16.88
2018-04-15T21:03:21.717Z,16.91
2018-04-15T21:05:49.298Z,16.92
2018-04-15T21:08:16.827Z,16.95
2018-04-15T21:10:44.549Z,17.02
2018-04-15T21:13:12.050Z,17.00
2018-04-15T21:18:13.490Z,16.82
2018-04-15T21:20:40.992Z,16.75
2018-04-15T21:23:08.493Z,16.70
2018-04-15T21:25:35.975Z,16.68
2018-04-15T21:28:03.451Z,16.64
2018-04-15T21:30:32.059Z,16.60
2018-04-15T21:32:59.763Z,16.59
2018-04-15T21:35:30.662Z,16.60
2018-04-15T21:38:00.070Z,16.57
2018-04-15T21:40:27.646Z,16.57
2018-04-15T21:42:55.204Z,16.54
2018-04-15T21:45:22.711Z,16.58
2018-04-15T21:47:50.211Z,16.68
2018-04-15T21:50:17.745Z,16.70
2018-04-15T21:52:45.224Z,16.65
2018-04-15T21:55:12.842Z,16.62
2018-04-15T21:57:40.425Z,16.57
2018-04-15T22:00:07.925Z,16.52
2018-04-15T22:02:35.402Z,16.49
2018-04-15T22:05:03.002Z,16.47
2018-04-15T22:07:30.491Z,16.49
2018-04-15T22:09:57.966Z,16.50
2018-04-15T22:12:25.478Z,16.49
2018-04-15T22:14:52.969Z,16.50
2018-04-15T22:17:20.447Z,16.49
2018-04-15T22:19:47.911Z,16.47
2018-04-15T22:22:15.430Z,16.34
2018-04-15T22:24:42.899Z,16.35
2018-04-15T22:27:10.369Z,16.33
2018-04-15T22:29:37.848Z,16.35
2018-04-15T22:32:05.352Z,16.35
2018-04-15T22:34:32.834Z,16.29
2018-04-15T22:37:00.408Z,16.27
2018-04-15T22:39:27.942Z,16.19
2018-04-15T22:41:55.435Z,16.17
2018-04-15T22:44:22.987Z,16.01
2018-04-15T22:46:50.456Z,15.96
2018-04-15T22:49:22.710Z,15.92
2018-04-15T22:51:50.194Z,15.93
2018-04-15T22:54:17.816Z,15.85
2018-04-15T22:56:45.929Z,15.81
2018-04-15T22:59:13.560Z,15.73
2018-04-15T23:01:41.075Z,15.69
2018-04-15T23:04:08.592Z,15.69
2018-04-15T23:06:36.279Z,15.64
2018-04-15T23:09:03.785Z,15.65
2018-04-15T23:11:31.259Z,15.63
2018-04-15T23:13:58.755Z,15.65
2018-04-15T23:16:26.529Z,15.68
2018-04-15T23:18:54.012Z,15.65
2018-04-15T23:21:21.498Z,15.62
2018-04-15T23:23:49.018Z,15.58
2018-04-15T23:26:16.500Z,15.60
2018-04-15T23:28:43.981Z,15.55
2018-04-15T23:31:11.470Z,15.49
2018-04-15T23:33:38.954Z,15.48
2018-04-15T23:36:06.432Z,15.41
2018-04-15T23:38:33.919Z,15.43
2018-04-15T23:41:01.431Z,15.37
2018-04-15T23:43:28.880Z,15.36
2018-04-15T23:45:56.360Z,15.32
2018-04-15T23:48:23.821Z,15.26
2018-04-15T23:50:51.294Z,15.21
2018-04-15T23:53:18.832Z,15.27
2018-04-15T23:55:46.305Z,15.29
2018-04-15T23:58:13.802Z,15.30
